createdAt,value
2022-07-25T00:01:30.289Z,4.80
2022-07-25T00:03:02.104Z,4.92
2022-07-25T00:04:34.372Z,5.00
2022-07-25T00:06:07.258Z,4.77
2022-07-25T00:07:45.230Z,4.92
2022-07-25T00:09:16.773Z,4.62
2022-07-25T00:10:48.359Z,4.52
2022-07-25T00:12:19.925Z,4.80
2022-07-25T00:13:51.544Z,4.77
2022-07-25T00:15:23.169Z,4.80
2022-07-25T00:16:54.633Z,4.49
2022-07-25T00:18:26.260Z,4.71
2022-07-25T00:19:57.793Z,4.81
2022-07-25T00:21:29.741Z,4.76
2022-07-25T00:23:01.409Z,4.62
2022-07-25T00:24:33.105Z,4.42
2022-07-25T00:26:04.767Z,4.47
2022-07-25T00:27:36.216Z,4.61
2022-07-25T00:29:07.615Z,4.69
2022-07-25T00:30:39.260Z,4.69
2022-07-25T00:32:15.867Z,4.59
2022-07-25T00:33:47.590Z,4.44
2022-07-25T00:35:19.193Z,4.43
2022-07-25T00:36:50.593Z,4.57
2022-07-25T00:38:22.010Z,4.60
2022-07-25T00:39:54.231Z,4.46
2022-07-25T00:41:25.638Z,4.62
2022-07-25T00:42:57.280Z,4.64
2022-07-25T00:44:28.874Z,4.72
2022-07-25T00:46:00.601Z,4.61
2022-07-25T00:47:33.543Z,4.29
2022-07-25T00:49:05.086Z,4.52
2022-07-25T00:50:36.717Z,4.56
2022-07-25T00:52:08.385Z,4.62
2022-07-25T00:53:39.877Z,4.30
2022-07-25T00:55:11.489Z,4.34
2022-07-25T00:56:44.132Z,4.71
2022-07-25T00:58:15.861Z,4.63
2022-07-25T00:59:47.267Z,4.39
2022-07-25T01:01:18.940Z,4.69
2022-07-25T01:02:50.925Z,4.22
2022-07-25T01:04:22.539Z,4.47
2022-07-25T01:05:54.139Z,4.69
2022-07-25T01:07:25.778Z,4.51
2022-07-25T01:08:57.446Z,4.46
2022-07-25T01:10:29.015Z,4.62
2022-07-25T01:12:05.872Z,4.66
2022-07-25T01:13:37.486Z,4.58
2022-07-25T01:15:09.121Z,4.41
2022-07-25T01:16:40.608Z,4.40
2022-07-25T01:18:11.989Z,4.58
2022-07-25T01:19:43.669Z,4.34
2022-07-25T01:21:15.170Z,4.83
2022-07-25T01:22:46.861Z,4.46
2022-07-25T01:24:18.704Z,4.45
2022-07-25T01:25:50.231Z,4.54
2022-07-25T01:27:21.634Z,4.30
2022-07-25T01:28:53.148Z,4.30
2022-07-25T01:30:24.965Z,4.66
2022-07-25T01:31:56.548Z,4.52
2022-07-25T01:33:28.126Z,4.73
2022-07-25T01:34:59.675Z,4.71
2022-07-25T01:36:31.373Z,4.48
2022-07-25T01:38:03.358Z,4.76
2022-07-25T01:39:34.927Z,4.31
2022-07-25T01:41:06.476Z,4.52
2022-07-25T01:42:38.024Z,4.41
2022-07-25T01:44:09.936Z,4.47
2022-07-25T01:45:41.549Z,4.35
2022-07-25T01:47:13.161Z,4.41
2022-07-25T01:48:44.878Z,4.58
2022-07-25T01:50:16.391Z,4.45
2022-07-25T01:51:47.879Z,4.48
2022-07-25T01:53:19.912Z,4.43
2022-07-25T01:54:51.443Z,4.62
2022-07-25T01:56:23.047Z,4.69
2022-07-25T01:57:56.028Z,4.61
2022-07-25T01:59:27.857Z,4.62
2022-07-25T02:00:59.655Z,4.63
2022-07-25T02:02:31.151Z,4.56
2022-07-25T02:04:03.164Z,4.38
2022-07-25T02:05:34.720Z,4.38
2022-07-25T02:07:06.076Z,4.54
2022-07-25T02:08:37.893Z,4.56
2022-07-25T02:10:09.650Z,4.75
2022-07-25T02:11:41.313Z,4.50
2022-07-25T02:13:12.733Z,4.88
2022-07-25T02:14:44.199Z,4.66
2022-07-25T02:16:15.885Z,4.53
2022-07-25T02:17:47.536Z,4.55
2022-07-25T02:19:19.105Z,4.63
2022-07-25T02:20:50.582Z,4.52
2022-07-25T02:22:22.115Z,4.54
2022-07-25T02:23:55.340Z,4.73
2022-07-25T02:25:27.104Z,4.31
2022-07-25T02:26:58.714Z,4.52
2022-07-25T02:28:30.293Z,4.53
2022-07-25T02:30:01.806Z,4.68
2022-07-25T02:31:33.402Z,4.59
2022-07-25T02:33:04.923Z,4.48
2022-07-25T02:34:36.488Z,4.48
2022-07-25T02:36:09.078Z,4.84
2022-07-25T02:37:40.871Z,4.64
2022-07-25T02:39:12.396Z,4.39
2022-07-25T02:40:43.811Z,4.37
2022-07-25T02:42:15.642Z,4.53
2022-07-25T02:43:47.209Z,4.53
2022-07-25T02:45:18.730Z,4.60
2022-07-25T02:46:50.423Z,4.70
2022-07-25T02:48:21.811Z,4.50
2022-07-25T02:49:53.419Z,4.65
2022-07-25T02:51:24.834Z,4.61
2022-07-25T02:52:57.329Z,5.04
2022-07-25T02:54:28.740Z,4.55
2022-07-25T02:56:00.657Z,5.13
2022-07-25T02:57:32.242Z,4.49
2022-07-25T02:59:03.765Z,4.18
2022-07-25T03:00:35.335Z,4.37
2022-07-25T03:02:07.044Z,4.54
2022-07-25T03:03:38.580Z,4.49
2022-07-25T03:05:10.040Z,4.58
2022-07-25T03:06:41.436Z,4.66
2022-07-25T03:08:18.250Z,4.69
2022-07-25T03:09:50.143Z,4.71
2022-07-25T03:11:22.230Z,4.76
2022-07-25T03:12:54.145Z,4.65
2022-07-25T03:14:25.600Z,4.70
2022-07-25T03:15:57.021Z,4.52
2022-07-25T03:17:28.687Z,4.74
2022-07-25T03:19:00.190Z,4.57
2022-07-25T03:20:31.582Z,4.70
2022-07-25T03:22:03.074Z,4.63
2022-07-25T03:23:34.689Z,4.66
2022-07-25T03:25:06.214Z,4.52
2022-07-25T03:26:46.876Z,4.84
2022-07-25T03:28:18.274Z,4.68
2022-07-25T03:29:49.778Z,4.48
2022-07-25T03:31:21.419Z,4.42
2022-07-25T03:32:53.189Z,4.45
2022-07-25T03:34:24.673Z,4.38
2022-07-25T03:35:58.315Z,4.85
2022-07-25T03:37:29.790Z,4.57
2022-07-25T03:39:01.481Z,4.29
2022-07-25T03:40:37.227Z,4.67
2022-07-25T03:42:08.712Z,4.55
2022-07-25T03:43:40.305Z,4.54
2022-07-25T03:45:11.720Z,4.59
2022-07-25T03:46:43.463Z,4.59
2022-07-25T03:48:15.431Z,4.46
2022-07-25T03:49:47.035Z,4.60
2022-07-25T03:51:18.743Z,4.42
2022-07-25T03:52:50.593Z,4.65
2022-07-25T03:54:22.212Z,4.49
2022-07-25T03:55:56.231Z,4.39
2022-07-25T03:57:28.100Z,4.49
2022-07-25T03:58:59.984Z,4.47
2022-07-25T04:00:31.833Z,4.51
2022-07-25T04:02:03.749Z,4.29
2022-07-25T04:03:35.233Z,4.44
2022-07-25T04:05:07.011Z,4.43
2022-07-25T04:06:38.670Z,4.38
2022-07-25T04:08:10.088Z,4.24
2022-07-25T04:09:41.598Z,4.40
2022-07-25T04:11:13.220Z,4.46
2022-07-25T04:12:44.798Z,4.26
2022-07-25T04:14:16.467Z,4.58
2022-07-25T04:15:48.344Z,4.44
2022-07-25T04:17:19.914Z,4.39
2022-07-25T04:18:52.999Z,4.59
2022-07-25T04:20:25.220Z,4.52
2022-07-25T04:21:56.724Z,4.61
2022-07-25T04:23:28.352Z,4.25
2022-07-25T04:24:59.877Z,4.39
2022-07-25T04:26:31.722Z,4.27
2022-07-25T04:28:03.438Z,4.28
2022-07-25T04:29:35.608Z,4.15
2022-07-25T04:31:07.110Z,4.24
2022-07-25T04:32:38.923Z,4.36
2022-07-25T04:34:10.593Z,4.26
2022-07-25T04:35:42.105Z,4.30
2022-07-25T04:37:13.682Z,4.36
2022-07-25T04:38:45.376Z,4.12
2022-07-25T04:40:17.100Z,4.23
2022-07-25T04:41:49.095Z,4.18
2022-07-25T04:43:21.082Z,4.23
2022-07-25T04:44:52.556Z,4.18
2022-07-25T04:46:24.416Z,4.11
2022-07-25T04:47:56.109Z,4.00
2022-07-25T04:49:28.085Z,4.29
2022-07-25T04:50:59.693Z,4.44
2022-07-25T04:52:31.736Z,4.19
2022-07-25T04:54:03.724Z,4.30
2022-07-25T04:55:36.225Z,4.15
2022-07-25T04:57:07.888Z,4.22
2022-07-25T04:58:39.791Z,4.40
2022-07-25T05:00:11.319Z,4.41
2022-07-25T05:01:43.054Z,4.39
2022-07-25T05:03:14.513Z,4.25
2022-07-25T05:04:46.042Z,4.05
2022-07-25T05:06:23.659Z,4.11
2022-07-25T05:07:55.548Z,4.11
2022-07-25T05:09:27.234Z,4.33
2022-07-25T05:10:58.776Z,4.03
2022-07-25T05:12:35.234Z,4.17
2022-07-25T05:14:07.224Z,4.11
2022-07-25T05:15:44.077Z,4.04
2022-07-25T05:17:15.581Z,3.89
2022-07-25T05:18:47.128Z,4.13
2022-07-25T05:20:18.612Z,4.02
2022-07-25T05:21:50.557Z,4.18
2022-07-25T05:23:22.250Z,3.91
2022-07-25T05:24:53.977Z,4.17
2022-07-25T05:26:25.652Z,4.24
2022-07-25T05:27:59.683Z,4.15
2022-07-25T05:29:31.511Z,4.32
2022-07-25T05:31:02.997Z,4.46
2022-07-25T05:32:34.554Z,4.32
2022-07-25T05:34:06.450Z,4.36
2022-07-25T05:35:44.404Z,4.28
2022-07-25T05:37:17.260Z,4.22
2022-07-25T05:38:48.751Z,4.12
2022-07-25T05:40:20.190Z,4.25
2022-07-25T05:41:51.732Z,4.48
2022-07-25T05:43:24.793Z,4.35
2022-07-25T05:44:56.259Z,4.21
2022-07-25T05:46:32.757Z,4.31
2022-07-25T05:48:04.691Z,4.33
2022-07-25T05:49:36.181Z,4.36
2022-07-25T05:51:07.862Z,3.93
2022-07-25T05:52:40.236Z,4.24
2022-07-25T05:54:16.865Z,4.45
2022-07-25T05:55:48.529Z,4.23
2022-07-25T05:57:25.299Z,4.06
2022-07-25T05:58:56.883Z,4.66
2022-07-25T06:00:28.644Z,4.35
2022-07-25T06:02:00.368Z,4.03
2022-07-25T06:03:32.280Z,4.22
2022-07-25T06:05:03.754Z,4.50
2022-07-25T06:06:35.222Z,4.33
2022-07-25T06:08:06.901Z,4.25
2022-07-25T06:09:43.501Z,4.31
2022-07-25T06:11:15.430Z,4.27
2022-07-25T06:12:47.038Z,4.31
2022-07-25T06:14:19.463Z,4.40
2022-07-25T06:15:51.610Z,4.29
2022-07-25T06:17:24.506Z,4.15
2022-07-25T06:18:58.582Z,4.15
2022-07-25T06:20:36.294Z,4.35
2022-07-25T06:22:08.155Z,4.47
2022-07-25T06:23:40.722Z,4.14
2022-07-25T06:25:12.241Z,4.72
2022-07-25T06:26:44.070Z,4.39
2022-07-25T06:28:15.662Z,4.71
2022-07-25T06:29:50.581Z,6.88
2022-07-25T06:31:22.473Z,6.77
2022-07-25T06:32:54.210Z,4.34
2022-07-25T06:34:28.807Z,4.47
2022-07-25T06:36:00.868Z,4.09
2022-07-25T06:37:32.522Z,4.13
2022-07-25T06:39:04.177Z,4.36
2022-07-25T06:40:36.110Z,4.38
2022-07-25T06:42:08.025Z,4.35
2022-07-25T06:43:39.809Z,4.20
2022-07-25T06:45:11.771Z,4.11
2022-07-25T06:46:43.926Z,4.27
2022-07-25T06:48:15.501Z,4.48
2022-07-25T06:49:47.157Z,4.35
2022-07-25T06:51:19.039Z,4.22
2022-07-25T06:52:50.801Z,4.33
2022-07-25T06:54:22.296Z,4.62
2022-07-25T06:55:54.639Z,4.37
2022-07-25T06:57:26.437Z,4.20
2022-07-25T06:58:58.535Z,4.41
2022-07-25T07:00:30.193Z,4.38
2022-07-25T07:02:01.904Z,4.33
2022-07-25T07:03:33.749Z,4.43
2022-07-25T07:05:05.389Z,4.42
2022-07-25T07:06:37.073Z,4.25
2022-07-25T07:08:08.596Z,4.33
2022-07-25T07:09:40.284Z,4.12
2022-07-25T07:11:11.897Z,4.25
2022-07-25T07:12:44.216Z,4.16
2022-07-25T07:14:16.731Z,4.16
2022-07-25T07:15:48.441Z,4.17
2022-07-25T07:17:20.382Z,4.33
2022-07-25T07:18:51.890Z,4.25
2022-07-25T07:20:28.694Z,4.57
2022-07-25T07:22:00.716Z,4.00
2022-07-25T07:23:33.462Z,4.16
2022-07-25T07:25:07.411Z,4.66
2022-07-25T07:26:40.706Z,4.45
2022-07-25T07:28:17.377Z,4.41
2022-07-25T07:29:49.461Z,4.38
2022-07-25T07:31:26.390Z,4.38
2022-07-25T07:33:05.517Z,4.66
2022-07-25T07:34:37.315Z,4.52
2022-07-25T07:36:14.786Z,4.43
2022-07-25T07:37:46.675Z,4.69
2022-07-25T07:39:18.539Z,4.45
2022-07-25T07:40:50.374Z,4.76
2022-07-25T07:42:29.421Z,4.61
2022-07-25T07:44:02.536Z,4.23
2022-07-25T07:45:34.799Z,4.42
2022-07-25T07:47:06.622Z,4.53
2022-07-25T07:48:46.209Z,4.45
2022-07-25T07:50:18.898Z,4.55
2022-07-25T07:51:50.361Z,4.32
2022-07-25T07:53:21.893Z,4.74
2022-07-25T07:54:57.671Z,4.43
2022-07-25T07:56:31.272Z,4.51
2022-07-25T07:58:03.581Z,4.49
2022-07-25T07:59:35.169Z,4.48
2022-07-25T08:01:07.126Z,4.58
2022-07-25T08:02:39.069Z,4.63
2022-07-25T08:04:11.424Z,4.94
2022-07-25T08:05:47.942Z,4.71
2022-07-25T08:07:19.584Z,4.69
2022-07-25T08:08:51.746Z,4.91
2022-07-25T08:10:23.422Z,4.80
2022-07-25T08:11:55.122Z,4.67
2022-07-25T08:13:33.219Z,4.86
2022-07-25T08:15:05.513Z,4.71
2022-07-25T08:16:37.189Z,4.79
2022-07-25T08:18:16.865Z,4.57
2022-07-25T08:19:49.502Z,4.67
2022-07-25T08:21:21.596Z,4.44
2022-07-25T08:22:56.668Z,4.73
2022-07-25T08:24:28.772Z,4.92
2022-07-25T08:26:05.509Z,4.92
2022-07-25T08:27:37.158Z,4.35
2022-07-25T08:29:19.124Z,4.36
2022-07-25T08:30:52.382Z,4.40
2022-07-25T08:32:29.174Z,4.68
2022-07-25T08:34:00.722Z,4.35
2022-07-25T08:35:32.358Z,4.44
2022-07-25T08:37:03.846Z,4.50
2022-07-25T08:38:35.518Z,4.75
2022-07-25T08:40:07.125Z,4.39
2022-07-25T08:41:38.759Z,4.45
2022-07-25T08:43:11.855Z,4.36
2022-07-25T08:44:43.878Z,4.54
2022-07-25T08:46:15.737Z,4.48
2022-07-25T08:47:49.097Z,4.54
2022-07-25T08:49:20.793Z,4.46
2022-07-25T08:50:52.667Z,4.46
2022-07-25T08:52:29.680Z,4.49
2022-07-25T08:54:01.197Z,4.62
2022-07-25T08:55:32.812Z,4.17
2022-07-25T08:57:04.440Z,4.48
2022-07-25T08:58:36.065Z,4.56
2022-07-25T09:00:07.582Z,4.43
2022-07-25T09:01:39.360Z,4.57
2022-07-25T09:03:11.045Z,4.31
2022-07-25T09:04:42.591Z,4.27
2022-07-25T09:06:14.211Z,4.28
2022-07-25T09:07:45.760Z,4.45
2022-07-25T09:09:17.680Z,4.63
2022-07-25T09:10:50.335Z,4.68
2022-07-25T09:12:25.951Z,4.51
2022-07-25T09:13:57.907Z,4.32
2022-07-25T09:15:29.604Z,4.48
2022-07-25T09:17:01.721Z,4.66
2022-07-25T09:18:33.425Z,4.63
2022-07-25T09:20:05.103Z,4.61
2022-07-25T09:21:36.756Z,4.34
2022-07-25T09:23:08.293Z,4.26
2022-07-25T09:24:39.963Z,4.61
2022-07-25T09:26:11.866Z,4.40
2022-07-25T09:27:43.726Z,4.41
2022-07-25T09:29:16.351Z,4.53
2022-07-25T09:30:48.580Z,4.76
2022-07-25T09:32:20.334Z,4.73
2022-07-25T09:33:51.925Z,4.81
2022-07-25T09:35:23.491Z,4.86
2022-07-25T09:36:55.122Z,4.82
2022-07-25T09:38:26.656Z,4.67
2022-07-25T09:39:58.233Z,4.75
2022-07-25T09:41:29.811Z,4.80
2022-07-25T09:43:01.435Z,4.89
2022-07-25T09:44:32.962Z,5.09
2022-07-25T09:46:04.486Z,4.88
2022-07-25T09:47:37.441Z,4.65
2022-07-25T09:49:09.340Z,4.60
2022-07-25T09:50:41.131Z,4.87
2022-07-25T09:52:12.887Z,4.80
2022-07-25T09:53:49.753Z,5.02
2022-07-25T09:55:21.840Z,5.06
2022-07-25T09:56:53.818Z,4.90
2022-07-25T09:58:30.618Z,4.92
2022-07-25T10:00:02.556Z,4.94
2022-07-25T10:01:34.655Z,4.84
2022-07-25T10:03:06.336Z,4.87
2022-07-25T10:04:38.397Z,4.79
2022-07-25T10:06:10.637Z,4.89
2022-07-25T10:07:47.692Z,4.81
2022-07-25T10:09:19.338Z,4.96
2022-07-25T10:10:50.847Z,5.26
2022-07-25T10:12:22.308Z,5.19
2022-07-25T10:13:53.856Z,5.11
2022-07-25T10:15:25.359Z,4.99
2022-07-25T10:16:56.862Z,4.85
2022-07-25T10:18:28.589Z,4.95
2022-07-25T10:20:00.786Z,5.25
2022-07-25T10:21:32.285Z,4.84
2022-07-25T10:23:03.923Z,4.79
2022-07-25T10:24:35.470Z,5.12
2022-07-25T10:26:06.930Z,4.91
2022-07-25T10:27:38.551Z,5.00
2022-07-25T10:29:10.324Z,4.93
2022-07-25T10:30:52.382Z,5.17
2022-07-25T10:32:34.043Z,4.86
2022-07-25T10:34:06.281Z,4.79
2022-07-25T10:35:38.139Z,4.43
2022-07-25T10:37:09.682Z,4.41
2022-07-25T10:38:41.557Z,5.12
2022-07-25T10:40:13.446Z,4.70
2022-07-25T10:41:45.270Z,4.59
2022-07-25T10:43:16.935Z,4.68
2022-07-25T10:44:49.320Z,4.76
2022-07-25T10:46:21.157Z,4.87
2022-07-25T10:47:53.035Z,4.42
2022-07-25T10:49:31.860Z,4.60
2022-07-25T10:51:04.383Z,4.88
2022-07-25T10:52:36.076Z,5.02
2022-07-25T10:54:08.080Z,4.68
2022-07-25T10:55:39.776Z,4.61
2022-07-25T10:57:11.654Z,4.64
2022-07-25T10:58:43.868Z,4.82
2022-07-25T11:00:15.677Z,4.83
2022-07-25T11:01:47.468Z,4.54
2022-07-25T11:03:19.316Z,4.81
2022-07-25T11:04:51.093Z,4.93
2022-07-25T11:06:22.962Z,4.74
2022-07-25T11:08:20.074Z,4.80
2022-07-25T11:09:53.935Z,4.75
2022-07-25T11:11:25.854Z,4.66
2022-07-25T11:12:57.640Z,4.45
2022-07-25T11:14:29.446Z,4.73
2022-07-25T11:16:02.183Z,4.97
2022-07-25T11:17:33.866Z,4.83
2022-07-25T11:19:06.030Z,4.64
2022-07-25T11:20:38.752Z,5.09
2022-07-25T11:22:10.356Z,4.82
2022-07-25T11:23:42.112Z,4.74
2022-07-25T11:25:13.687Z,5.02
2022-07-25T11:26:45.465Z,5.17
2022-07-25T11:28:17.054Z,5.15
2022-07-25T11:29:48.922Z,4.91
2022-07-25T11:31:20.961Z,4.94
2022-07-25T11:32:52.841Z,5.10
2022-07-25T11:34:24.783Z,5.30
2022-07-25T11:35:56.353Z,5.07
2022-07-25T11:37:28.005Z,5.11
2022-07-25T11:39:00.582Z,5.10
2022-07-25T11:40:32.433Z,4.94
2022-07-25T11:42:04.215Z,5.34
2022-07-25T11:43:35.886Z,5.38
2022-07-25T11:45:07.702Z,5.27
2022-07-25T11:46:39.835Z,5.44
2022-07-25T11:48:11.731Z,5.29
2022-07-25T11:49:44.223Z,5.26
2022-07-25T11:51:18.587Z,4.99
2022-07-25T11:52:51.018Z,5.06
2022-07-25T11:54:23.302Z,5.39
2022-07-25T11:55:54.912Z,5.15
2022-07-25T11:57:26.506Z,5.39
2022-07-25T11:58:59.701Z,5.47
2022-07-25T12:00:31.751Z,5.65
2022-07-25T12:02:03.906Z,5.42
2022-07-25T12:03:36.129Z,5.43
2022-07-25T12:05:08.189Z,5.11
2022-07-25T12:06:39.889Z,5.17
2022-07-25T12:08:11.508Z,5.45
2022-07-25T12:09:43.240Z,5.42
2022-07-25T12:11:14.849Z,6.18
2022-07-25T12:12:46.869Z,7.11
2022-07-25T12:14:18.680Z,5.31
2022-07-25T12:15:50.721Z,5.28
2022-07-25T12:17:22.538Z,4.54
2022-07-25T12:18:54.483Z,4.24
2022-07-25T12:20:26.259Z,4.12
2022-07-25T12:21:57.970Z,3.72
2022-07-25T12:23:30.018Z,3.74
2022-07-25T12:25:01.833Z,3.59
2022-07-25T12:26:33.465Z,3.77
2022-07-25T12:28:05.178Z,3.87
2022-07-25T12:29:41.823Z,3.79
2022-07-25T12:31:13.621Z,3.54
2022-07-25T12:32:45.380Z,3.45
2022-07-25T12:34:17.358Z,3.48
2022-07-25T12:35:49.668Z,3.29
2022-07-25T12:37:21.357Z,3.40
2022-07-25T12:38:53.152Z,3.80
2022-07-25T12:40:25.613Z,4.26
2022-07-25T12:41:57.410Z,3.75
2022-07-25T12:43:28.957Z,3.23
2022-07-25T12:45:00.780Z,3.38
2022-07-25T12:46:32.377Z,3.48
2022-07-25T12:48:04.052Z,3.33
2022-07-25T12:49:35.814Z,3.52
2022-07-25T12:51:07.706Z,3.46
2022-07-25T12:52:39.674Z,3.44
2022-07-25T12:54:11.295Z,3.29
2022-07-25T12:55:43.571Z,3.39
2022-07-25T12:57:15.200Z,3.42
2022-07-25T12:58:46.890Z,3.52
2022-07-25T13:00:18.432Z,3.45
2022-07-25T13:01:50.125Z,3.50
2022-07-25T13:03:22.000Z,3.51
2022-07-25T13:04:54.079Z,3.52
2022-07-25T13:06:25.693Z,3.99
2022-07-25T13:07:57.443Z,7.58
2022-07-25T13:09:29.188Z,3.91
2022-07-25T13:11:01.085Z,3.62
2022-07-25T13:12:34.338Z,3.24
2022-07-25T13:14:06.273Z,3.33
2022-07-25T13:15:38.014Z,3.19
2022-07-25T13:17:09.615Z,3.33
2022-07-25T13:18:41.136Z,3.27
2022-07-25T13:20:13.418Z,3.26
2022-07-25T13:21:45.012Z,3.49
2022-07-25T13:23:20.663Z,3.19
2022-07-25T13:24:52.636Z,3.15
2022-07-25T13:26:24.460Z,3.09
2022-07-25T13:27:56.031Z,3.43
2022-07-25T13:29:27.635Z,4.00
2022-07-25T13:30:59.442Z,3.48
2022-07-25T13:32:31.155Z,3.35
2022-07-25T13:34:02.784Z,3.13
2022-07-25T13:35:38.899Z,3.03
2022-07-25T13:37:11.280Z,3.11
2022-07-25T13:38:42.979Z,3.15
2022-07-25T13:40:15.134Z,2.88
2022-07-25T13:41:47.302Z,3.10
2022-07-25T13:43:19.213Z,3.32
2022-07-25T13:44:51.395Z,3.04
2022-07-25T13:46:23.183Z,3.27
2022-07-25T13:48:11.987Z,2.78
2022-07-25T13:50:04.888Z,2.94
2022-07-25T13:51:37.016Z,2.88
2022-07-25T13:53:08.954Z,2.85
2022-07-25T13:54:50.785Z,2.88
2022-07-25T13:56:32.677Z,2.84
2022-07-25T13:58:04.326Z,3.15
2022-07-25T13:59:36.266Z,3.23
2022-07-25T14:01:08.104Z,2.72
2022-07-25T14:02:40.020Z,3.12
2022-07-25T14:04:11.991Z,4.28
2022-07-25T14:05:48.709Z,2.90
2022-07-25T14:07:25.395Z,3.05
2022-07-25T14:08:58.193Z,2.58
2022-07-25T14:10:30.392Z,2.87
2022-07-25T14:12:02.387Z,2.79
2022-07-25T14:13:35.870Z,2.69
2022-07-25T14:15:12.584Z,2.66
2022-07-25T14:16:44.798Z,2.61
2022-07-25T14:18:16.770Z,2.49
2022-07-25T14:19:49.961Z,2.57
2022-07-25T14:21:21.873Z,2.52
2022-07-25T14:22:59.012Z,2.68
2022-07-25T14:24:30.773Z,2.12
2022-07-25T14:26:02.544Z,2.23
2022-07-25T14:27:34.607Z,2.09
2022-07-25T14:29:07.350Z,2.36
2022-07-25T14:30:39.305Z,2.32
2022-07-25T14:32:11.224Z,2.37
2022-07-25T14:33:43.214Z,2.18
2022-07-25T14:35:14.889Z,2.31
2022-07-25T14:36:46.800Z,2.29
2022-07-25T14:38:19.030Z,2.15
2022-07-25T14:39:50.724Z,2.11
2022-07-25T14:41:22.885Z,2.16
2022-07-25T14:42:55.675Z,1.78
2022-07-25T14:44:28.412Z,2.00
2022-07-25T14:46:00.115Z,1.89
2022-07-25T14:47:32.917Z,1.78
2022-07-25T14:49:05.797Z,1.91
2022-07-25T14:50:37.804Z,1.90
2022-07-25T14:52:14.585Z,1.86
2022-07-25T14:53:50.089Z,1.98
2022-07-25T14:55:29.675Z,1.85
2022-07-25T14:57:01.797Z,2.06
2022-07-25T14:58:38.635Z,2.01
2022-07-25T15:00:10.772Z,1.87
2022-07-25T15:01:47.771Z,1.91
2022-07-25T15:03:19.609Z,1.65
2022-07-25T15:05:01.458Z,2.08
2022-07-25T15:06:34.532Z,1.98
2022-07-25T15:08:06.378Z,1.86
2022-07-25T15:09:37.992Z,1.82
2022-07-25T15:11:14.914Z,1.85
2022-07-25T15:12:51.467Z,1.77
2022-07-25T15:14:35.661Z,1.77
2022-07-25T15:16:07.821Z,1.76
2022-07-25T15:17:39.783Z,1.69
2022-07-25T15:19:16.830Z,1.55
2022-07-25T15:20:54.631Z,1.69
2022-07-25T15:22:31.678Z,1.65
2022-07-25T15:24:04.246Z,1.71
2022-07-25T15:26:01.658Z,1.77
2022-07-25T15:27:33.741Z,1.84
2022-07-25T15:29:11.739Z,1.84
2022-07-25T15:30:44.532Z,1.70
2022-07-25T15:32:17.005Z,1.61
2022-07-25T15:33:50.001Z,1.88
2022-07-25T15:35:22.379Z,1.83
2022-07-25T15:36:54.595Z,1.78
2022-07-25T15:38:27.004Z,1.98
2022-07-25T15:39:58.685Z,1.87
2022-07-25T15:41:30.745Z,2.17
2022-07-25T15:43:02.394Z,2.46
2022-07-25T15:44:34.342Z,2.56
2022-07-25T15:46:07.459Z,2.41
2022-07-25T15:47:50.386Z,2.12
2022-07-25T15:49:23.193Z,2.57
2022-07-25T15:50:56.954Z,2.33
2022-07-25T15:52:35.234Z,2.41
2022-07-25T15:54:12.194Z,2.37
2022-07-25T15:55:49.296Z,2.33
2022-07-25T15:57:21.770Z,2.46
2022-07-25T15:58:54.674Z,2.33
2022-07-25T16:00:29.845Z,2.37
2022-07-25T16:02:02.681Z,2.22
2022-07-25T16:03:34.242Z,2.10
2022-07-25T16:05:07.038Z,2.47
2022-07-25T16:06:43.775Z,2.43
2022-07-25T16:08:20.695Z,2.48
2022-07-25T16:09:58.594Z,2.30
2022-07-25T16:11:40.447Z,2.16
2022-07-25T16:13:12.007Z,2.30
2022-07-25T16:14:43.741Z,2.12
2022-07-25T16:16:15.836Z,1.89
2022-07-25T16:17:47.569Z,2.14
2022-07-25T16:19:19.243Z,2.23
2022-07-25T16:20:52.252Z,2.13
2022-07-25T16:22:24.267Z,2.29
2022-07-25T16:23:56.658Z,2.20
2022-07-25T16:25:28.910Z,2.34
2022-07-25T16:27:01.313Z,2.27
2022-07-25T16:28:33.732Z,1.64
2022-07-25T16:30:06.316Z,1.70
2022-07-25T16:31:39.024Z,1.72
2022-07-25T16:33:10.508Z,1.78
2022-07-25T16:34:42.175Z,1.99
2022-07-25T16:36:24.316Z,1.93
2022-07-25T16:38:01.028Z,1.72
2022-07-25T16:39:37.755Z,1.72
2022-07-25T16:41:09.166Z,1.73
2022-07-25T16:42:41.161Z,1.73
2022-07-25T16:44:13.208Z,1.84
2022-07-25T16:45:44.738Z,1.80
2022-07-25T16:47:21.461Z,1.96
2022-07-25T16:48:53.071Z,1.87
2022-07-25T16:50:25.321Z,1.79
2022-07-25T16:51:56.958Z,1.76
2022-07-25T16:53:28.673Z,1.71
2022-07-25T16:55:05.258Z,1.61
2022-07-25T16:56:37.464Z,1.62
2022-07-25T16:58:10.024Z,1.69
2022-07-25T16:59:42.817Z,1.77
2022-07-25T17:01:14.415Z,1.80
2022-07-25T17:02:46.167Z,1.78
2022-07-25T17:04:17.797Z,1.72
2022-07-25T17:05:49.550Z,1.52
2022-07-25T17:07:22.082Z,1.70
2022-07-25T17:08:54.047Z,1.58
2022-07-25T17:10:25.640Z,1.54
2022-07-25T17:11:57.574Z,1.69
2022-07-25T17:13:34.499Z,1.88
2022-07-25T17:15:06.198Z,1.51
2022-07-25T17:16:38.127Z,1.71
2022-07-25T17:18:09.868Z,1.76
2022-07-25T17:19:41.665Z,1.70
2022-07-25T17:21:13.142Z,1.59
2022-07-25T17:22:44.856Z,1.64
2022-07-25T17:24:16.519Z,1.46
2022-07-25T17:25:50.618Z,1.62
2022-07-25T17:27:22.355Z,1.76
2022-07-25T17:28:53.988Z,1.71
2022-07-25T17:30:25.662Z,1.79
2022-07-25T17:31:57.345Z,1.73
2022-07-25T17:33:29.259Z,1.58
2022-07-25T17:35:01.516Z,1.72
2022-07-25T17:36:33.023Z,1.82
2022-07-25T17:38:04.570Z,1.79
2022-07-25T17:39:36.105Z,1.90
2022-07-25T17:41:07.610Z,1.74
2022-07-25T17:42:43.202Z,1.76
2022-07-25T17:44:17.236Z,1.73
2022-07-25T17:45:49.140Z,2.04
2022-07-25T17:47:21.037Z,1.91
2022-07-25T17:48:55.880Z,1.98
2022-07-25T17:50:29.372Z,1.94
2022-07-25T17:52:01.055Z,2.02
2022-07-25T17:53:32.723Z,1.59
2022-07-25T17:55:04.673Z,1.79
2022-07-25T17:56:36.603Z,1.74
2022-07-25T17:58:08.229Z,1.58
2022-07-25T17:59:40.028Z,1.74
2022-07-25T18:01:11.908Z,1.59
2022-07-25T18:02:43.768Z,1.73
2022-07-25T18:04:15.387Z,2.13
2022-07-25T18:05:47.518Z,1.47
2022-07-25T18:07:20.673Z,1.70
2022-07-25T18:08:52.179Z,1.68
2022-07-25T18:10:23.797Z,1.71
2022-07-25T18:11:55.322Z,1.72
2022-07-25T18:13:27.570Z,1.59
2022-07-25T18:14:59.076Z,1.44
2022-07-25T18:16:30.847Z,1.81
2022-07-25T18:18:02.470Z,1.41
2022-07-25T18:19:33.983Z,1.55
2022-07-25T18:21:05.720Z,1.66
2022-07-25T18:22:37.188Z,1.51
2022-07-25T18:24:09.175Z,1.47
2022-07-25T18:25:40.971Z,1.47
2022-07-25T18:27:12.776Z,1.54
2022-07-25T18:28:44.725Z,1.57
2022-07-25T18:30:16.843Z,1.60
2022-07-25T18:31:48.312Z,1.75
2022-07-25T18:33:20.626Z,1.55
2022-07-25T18:34:52.577Z,1.34
2022-07-25T18:36:31.581Z,1.63
2022-07-25T18:38:04.714Z,1.94
2022-07-25T18:39:36.385Z,1.67
2022-07-25T18:41:27.487Z,1.58
2022-07-25T18:43:00.410Z,1.44
2022-07-25T18:44:35.471Z,1.72
2022-07-25T18:46:07.203Z,1.45
2022-07-25T18:47:41.322Z,1.35
2022-07-25T18:49:13.253Z,1.34
2022-07-25T18:50:44.768Z,1.34
2022-07-25T18:52:16.389Z,1.14
2022-07-25T18:53:48.841Z,1.51
2022-07-25T18:55:20.885Z,1.37
2022-07-25T18:56:52.509Z,1.23
2022-07-25T18:58:24.246Z,1.21
2022-07-25T19:00:00.806Z,1.26
2022-07-25T19:01:34.693Z,1.32
2022-07-25T19:03:06.271Z,1.17
2022-07-25T19:04:37.892Z,1.17
2022-07-25T19:06:09.593Z,1.35
2022-07-25T19:07:41.074Z,1.33
2022-07-25T19:09:13.036Z,1.28
2022-07-25T19:10:44.485Z,1.25
2022-07-25T19:12:16.304Z,1.18
2022-07-25T19:13:49.999Z,1.14
2022-07-25T19:15:22.145Z,1.13
2022-07-25T19:16:53.779Z,1.16
2022-07-25T19:18:30.457Z,0.95
2022-07-25T19:20:02.149Z,0.80
2022-07-25T19:21:33.752Z,1.05
2022-07-25T19:23:05.576Z,0.84
2022-07-25T19:24:37.206Z,1.02
2022-07-25T19:26:08.777Z,0.96
2022-07-25T19:27:40.457Z,1.16
2022-07-25T19:29:12.170Z,1.07
2022-07-25T19:30:44.326Z,0.96
2022-07-25T19:32:17.117Z,0.98
2022-07-25T19:33:49.976Z,1.18
2022-07-25T19:35:26.067Z,1.18
2022-07-25T19:36:58.216Z,1.37
2022-07-25T19:38:29.871Z,1.09
2022-07-25T19:40:01.552Z,0.94
2022-07-25T19:41:33.236Z,1.05
2022-07-25T19:43:04.642Z,1.22
2022-07-25T19:44:36.174Z,1.01
2022-07-25T19:46:07.782Z,1.31
2022-07-25T19:47:39.705Z,1.35
2022-07-25T19:49:11.323Z,1.10
2022-07-25T19:50:42.836Z,1.00
2022-07-25T19:52:14.514Z,1.10
2022-07-25T19:53:46.252Z,1.05
2022-07-25T19:55:17.985Z,0.87
2022-07-25T19:56:50.196Z,1.15
2022-07-25T19:58:22.161Z,0.92
2022-07-25T19:59:53.706Z,1.18
2022-07-25T20:01:25.188Z,0.93
2022-07-25T20:02:56.824Z,1.04
2022-07-25T20:04:28.895Z,0.94
2022-07-25T20:06:04.642Z,0.84
2022-07-25T20:07:39.238Z,0.79
2022-07-25T20:09:11.103Z,0.93
2022-07-25T20:10:42.935Z,1.09
2022-07-25T20:12:14.710Z,0.92
2022-07-25T20:13:46.938Z,0.87
2022-07-25T20:15:20.207Z,0.98
2022-07-25T20:16:51.874Z,1.02
2022-07-25T20:18:23.455Z,0.97
2022-07-25T20:19:54.974Z,1.13
2022-07-25T20:21:26.775Z,1.05
2022-07-25T20:22:58.505Z,1.11
2022-07-25T20:24:30.068Z,0.99
2022-07-25T20:26:01.581Z,1.02
2022-07-25T20:27:33.269Z,1.02
2022-07-25T20:29:05.161Z,0.93
2022-07-25T20:30:36.799Z,1.08
2022-07-25T20:32:13.408Z,0.80
2022-07-25T20:33:45.082Z,1.22